Latest Weather Observations for Rhyll

IDV60801

Issued at 9:42 am EDT Tuesday 22 January 2019 (issued every 10 minutes, with the page automatically refreshed every 10 minutes)

About weather observations | Map of weather stations | Latest weather observations for VIC | Other Formats
Station Details ID: 086373 Name: RHYLL Lat: -38.46 Lon: 145.31 Height: 13.4 m
Data from the previous 72 hours. | See also: Recent months at Rhyll
Date/Time
EDT
Temp
°C
App
Temp
°C
Dew
Point
°C
Rel
Hum
%
Delta-T
°C
Wind Press
QNH
hPa
Press
MSL
hPa
Rain since
9am
mm
Dir  Spd
km/h
Gust
km/h
Spd
kts
Gust
kts
22/09:30am 19.2 20.8 16.8 86 1.4 S 4 9 2 5 1013.8 1013.7 0.0
22/09:00am 18.8 21.0 16.6 87 1.3 CALM 0 0 0 0 1013.9 1013.8 0.0
22/08:30am 18.6 20.9 16.8 89 1.1 CALM 0 0 0 0 1013.7 1013.6 0.0
22/08:00am 18.1 20.3 16.4 90 1.0 CALM 0 2 0 1 1013.4 1013.3 0.0
22/07:30am 17.9 19.6 16.2 90 1.0 W 2 4 1 2 1013.2 1013.1 0.0
22/07:00am 17.8 19.5 16.1 90 1.0 W 2 4 1 2 1013.2 1013.1 0.0
22/06:30am 17.8 19.5 16.1 90 1.0 WNW 2 2 1 1 1013.2 1013.1 0.0
22/06:00am 17.9 20.0 16.2 90 1.0 CALM 0 4 0 2 1013.2 1013.1 0.0
22/05:30am 17.9 19.2 16.2 90 1.0 WSW 4 7 2 4 1013.1 1013.0 0.0
22/05:00am 18.0 19.1 16.5 91 0.9 WSW 6 7 3 4 1013.3 1013.2 0.0
22/04:30am 18.0 19.4 16.3 90 1.0 SW 4 7 2 4 1013.3 1013.2 0.0
22/04:00am 18.0 19.4 16.3 90 1.0 WSW 4 7 2 4 1013.3 1013.2 0.0
22/03:30am 18.1 19.9 16.4 90 1.0 S 2 6 1 3 1013.5 1013.4 0.0
22/03:00am 18.3 19.5 16.8 91 0.9 S 6 9 3 5 1013.7 1013.6 0.0
22/02:30am 18.3 19.3 16.8 91 0.9 SSW 7 13 4 7 1014.2 1014.1 0.0
22/02:00am 18.2 19.2 16.9 92 0.8 SSW 7 13 4 7 1014.6 1014.5 0.0
22/01:30am 17.9 19.0 16.6 92 0.8 S 6 9 3 5 1014.7 1014.6 0.0
22/01:00am 17.8 18.9 16.5 92 0.8 S 6 9 3 5 1014.7 1014.6 0.0
22/12:30am 17.7 18.4 16.2 91 0.9 S 7 11 4 6 1015.2 1015.1 0.0
22/12:00am 17.8 18.1 16.1 90 1.0 S 9 13 5 7 1015.4 1015.3 0.0
 
Date/Time
EDT
Temp
°C
App
Temp
°C
Dew
Point
°C
Rel
Hum
%
Delta-T
°C
Wind Press
QNH
hPa
Press
MSL
hPa
Rain since
9am
mm
Dir  Spd
km/h
Gust
km/h
Spd
kts
Gust
kts
21/11:30pm 17.9 18.3 16.2 90 1.0 S 9 15 5 8 1015.9 1015.8 0.0
21/11:00pm 17.9 17.5 16.2 90 1.0 S 13 19 7 10 1016.1 1016.0 0.0
21/10:30pm 18.1 17.8 16.4 90 1.0 S 13 22 7 12 1016.1 1016.0 0.0
21/10:00pm 18.1 18.5 16.3 89 1.1 S 9 17 5 9 1015.7 1015.6 0.0
21/09:30pm 18.2 18.1 16.0 87 1.3 S 11 15 6 8 1015.7 1015.6 0.0
21/09:00pm 18.5 18.4 16.1 86 1.4 S 11 17 6 9 1015.3 1015.2 0.0
21/08:30pm 18.6 18.2 16.2 86 1.4 S 13 19 7 10 1014.8 1014.7 0.0
21/08:00pm 18.8 17.6 16.0 84 1.7 S 17 24 9 13 1014.5 1014.4 0.0
21/07:30pm 19.1 18.3 16.1 83 1.8 S 15 24 8 13 1014.3 1014.2 0.0
21/07:00pm 19.5 18.3 16.0 80 2.1 S 17 28 9 15 1013.9 1013.8 0.0
21/06:30pm 20.5 19.3 16.1 76 2.6 S 17 33 9 18 1013.8 1013.7 0.0
21/06:00pm 20.6 19.3 16.8 79 2.3 S 19 24 10 13 1013.8 1013.7 0.0
21/05:30pm 21.3 20.3 16.5 74 2.9 S 17 30 9 16 1014.1 1014.0 0.0
21/05:00pm 22.8 22.0 17.0 70 3.6 S 17 26 9 14 1014.2 1014.1 0.0
21/04:30pm 23.2 22.5 17.4 70 3.6 S 17 24 9 13 1014.3 1014.2 0.0
21/04:00pm 23.9 24.1 17.6 68 3.9 S 13 22 7 12 1014.4 1014.3 0.0
21/03:30pm 23.8 24.3 17.5 68 3.9 S 11 19 6 10 1014.6 1014.5 0.0
21/03:00pm 24.1 25.0 17.6 67 4.0 S 9 19 5 10 1015.0 1014.9 0.0
21/02:30pm 24.1 24.7 17.6 67 4.1 S 11 19 6 10 1015.3 1015.2 0.0
21/02:00pm 23.7 24.0 17.0 66 4.1 S 11 19 6 10 1015.7 1015.6 0.0
21/01:30pm 24.2 25.0 17.4 65 4.2 S 9 19 5 10 1016.1 1016.0 0.0
21/01:00pm 23.9 24.7 17.2 66 4.1 S 9 15 5 8 1016.4 1016.3 0.0
21/12:30pm 24.2 24.8 17.7 67 4.1 S 11 17 6 9 1016.9 1016.8 0.0
21/12:00pm 23.4 24.4 16.9 67 4.0 S 7 13 4 7 1017.1 1017.0 0.0
21/11:30am 22.4 22.8 16.2 68 3.8 S 9 13 5 7 1017.4 1017.3 0.0
21/11:00am 22.2 23.1 16.5 70 3.5 S 7 11 4 6 1017.7 1017.6 0.0
21/10:30am 21.5 22.4 16.0 71 3.3 SE 6 9 3 5 1018.0 1018.0 0.0
21/10:00am 20.7 21.9 15.9 74 2.9 SE 4 6 2 3 1018.3 1018.3 0.0
21/09:30am 18.8 19.5 15.7 82 1.8 ESE 6 7 3 4 1018.5 1018.5 0.0
21/09:00am 18.3 19.4 15.7 85 1.5 E 4 9 2 5 1018.6 1018.6 0.0
21/08:30am 17.8 17.9 15.6 87 1.3 ENE 9 15 5 8 1018.4 1018.4 0.0
21/08:00am 17.8 17.7 16.0 89 1.1 E 11 15 6 8 1018.0 1018.0 0.0
21/07:30am 17.6 18.4 15.9 90 1.0 SSE 6 11 3 6 1018.0 1018.0 0.0
21/07:00am 17.7 18.0 16.0 90 1.0 SE 9 15 5 8 1017.7 1017.6 0.0
21/06:30am 17.6 18.2 15.9 90 1.0 SSE 7 13 4 7 1017.7 1017.6 0.0
21/06:00am 17.4 17.9 15.6 89 1.1 SSE 7 13 4 7 1017.7 1017.6 0.0
21/05:30am 17.7 18.0 15.9 89 1.1 SE 9 15 5 8 1018.0 1018.0 0.0
21/05:00am 17.5 18.0 15.5 88 1.2 SSE 7 13 4 7 1018.0 1018.0 0.0
21/04:30am 17.6 18.1 15.6 88 1.2 S 7 13 4 7 1018.3 1018.3 0.0
21/04:00am 17.9 18.2 16.1 89 1.1 SSE 9 13 5 7 1018.5 1018.5 0.0
21/03:30am 17.6 17.7 15.6 88 1.2 S 9 17 5 9 1018.8 1018.8 0.0
21/03:00am 17.8 17.9 15.6 87 1.3 S 9 15 5 8 1018.9 1018.9 0.0
21/02:30am 17.9 17.7 15.7 87 1.3 S 11 15 6 8 1019.2 1019.2 0.0
21/02:00am 17.9 18.1 15.7 87 1.3 S 9 20 5 11 1019.5 1019.5 0.0
21/01:30am 18.0 18.2 15.8 87 1.3 S 9 13 5 7 1019.7 1019.7 0.0
21/01:00am 18.2 18.9 16.0 87 1.3 S 7 15 4 8 1019.8 1019.8 0.0
21/12:30am 18.0 18.1 15.6 86 1.4 S 9 15 5 8 1020.0 1020.0 0.0
21/12:00am 18.3 18.5 15.7 85 1.5 S 9 17 5 9 1020.1 1020.1 0.0
 
Date/Time
EDT
Temp
°C
App
Temp
°C
Dew
Point
°C
Rel
Hum
%
Delta-T
°C
Wind Press
QNH
hPa
Press
MSL
hPa
Rain since
9am
mm
Dir  Spd
km/h
Gust
km/h
Spd
kts
Gust
kts
20/11:30pm 18.4 19.0 15.8 85 1.5 S 7 13 4 7 1020.3 1020.3 0.0
20/11:00pm 18.4 18.5 15.6 84 1.6 S 9 15 5 8 1020.5 1020.5 0.0
20/10:30pm 18.3 18.4 15.6 84 1.6 S 9 17 5 9 1020.5 1020.5 0.0
20/10:00pm 18.6 18.4 15.8 84 1.7 S 11 19 6 10 1020.4 1020.4 0.0
20/09:30pm 18.3 18.0 15.4 83 1.7 S 11 20 6 11 1020.3 1020.3 0.0
20/09:00pm 18.6 18.2 15.3 81 1.9 S 11 19 6 10 1020.2 1020.2 0.0
20/08:30pm 18.6 18.2 15.1 80 2.0 S 11 20 6 11 1020.1 1020.1 0.0
20/08:00pm 19.7 19.7 15.1 75 2.7 S 9 19 5 10 1020.0 1020.0 0.0
20/07:30pm 20.2 19.7 15.0 72 3.1 S 11 20 6 11 1019.7 1019.7 0.0
20/07:00pm 21.2 21.2 15.3 69 3.5 S 9 15 5 8 1019.7 1019.7 0.0
20/06:30pm 21.1 20.1 14.7 67 3.8 SSW 13 22 7 12 1019.7 1019.7 0.0
20/06:00pm 21.2 20.2 14.6 66 3.9 SSW 13 24 7 13 1019.8 1019.8 0.0
20/05:30pm 21.7 21.3 15.1 66 3.9 SSW 11 20 6 11 1020.0 1020.0 0.0
20/05:00pm 22.1 21.3 15.0 64 4.2 SSW 13 24 7 13 1020.3 1020.3 0.0
20/04:30pm 23.0 22.6 15.1 61 4.7 SSW 11 20 6 11 1020.4 1020.4 0.0
20/04:00pm 22.7 22.2 14.8 61 4.7 SSW 11 22 6 12 1020.6 1020.6 0.0
20/03:30pm 23.0 22.6 15.3 62 4.6 S 11 20 6 11 1020.8 1020.8 0.0
20/03:00pm 22.5 22.8 16.1 67 3.9 S 9 17 5 9 1021.1 1021.1 0.0
20/02:30pm 23.3 23.1 15.6 62 4.6 SSW 11 20 6 11 1021.3 1021.3 0.0
20/02:00pm 21.7 20.7 14.6 64 4.2 SSW 13 22 7 12 1021.5 1021.5 0.0
20/01:30pm 22.4 22.1 15.5 65 4.1 S 11 19 6 10 1021.7 1021.7 0.0
20/01:00pm 21.4 20.6 15.0 67 3.8 SSW 13 22 7 12 1021.9 1021.9 0.0
20/12:30pm 21.8 22.1 15.9 69 3.5 S 9 17 5 9 1021.9 1021.9 0.0
20/12:00pm 19.4 19.3 14.9 75 2.6 SSW 9 19 5 10 1022.0 1022.0 0.0
20/11:30am 18.7 19.4 15.6 82 1.8 SSW 6 13 3 7 1022.3 1022.3 0.0
20/11:00am 18.9 19.3 15.2 79 2.2 SSW 7 11 4 6 1022.2 1022.2 0.0
20/10:30am 18.1 18.6 15.5 85 1.5 SSW 7 11 4 6 1022.2 1022.2 0.0
20/10:00am 18.2 18.3 15.5 84 1.6 SSW 9 15 5 8 1022.2 1022.2 0.0
20/09:30am 18.1 18.3 14.6 80 2.0 SW 7 11 4 6 1021.9 1021.9 0.0
20/09:00am 18.1 19.1 14.2 78 2.2 WSW 2 7 1 4 1021.6 1021.6 0.0
20/08:30am 18.0 18.5 13.9 77 2.3 SW 4 9 2 5 1021.5 1021.5 0.0
20/08:00am 17.9 18.4 14.0 78 2.2 S 4 7 2 4 1021.5 1021.5 0.0
20/07:30am 17.6 17.9 13.5 77 2.3 W 4 6 2 3 1021.2 1021.2 0.0
20/07:00am 17.6 18.3 13.5 77 2.3 W 2 7 1 4 1021.0 1021.0 0.0
20/06:30am 17.3 18.3 13.2 77 2.3 CALM 0 2 0 1 1021.0 1021.0 0.0
20/06:00am 17.3 17.5 13.2 77 2.3 SW 4 9 2 5 1021.1 1021.1 0.0
20/05:30am 17.1 17.2 12.8 76 2.4 SW 4 7 2 4 1021.2 1021.2 0.0
20/05:00am 17.0 17.6 13.1 78 2.2 WSW 2 6 1 3 1021.3 1021.3 0.0
20/04:30am 16.7 17.3 13.0 79 2.1 WSW 2 6 1 3 1021.3 1021.3 0.0
20/04:00am 16.4 16.1 12.8 79 2.0 WSW 6 7 3 4 1021.3 1021.3 0.0
20/03:30am 16.1 16.2 12.7 80 1.9 WSW 4 6 2 3 1021.3 1021.3 0.0
20/03:00am 15.9 16.0 12.6 81 1.8 WSW 4 6 2 3 1021.3 1021.3 0.0
20/02:30am 16.0 16.0 12.4 79 2.0 W 4 4 2 2 1021.4 1021.4 0.0
20/02:00am 16.6 16.3 12.6 77 2.2 SW 6 9 3 5 1021.6 1021.6 0.0
20/01:30am 16.9 16.0 12.6 76 2.4 SW 9 15 5 8 1021.9 1021.9 0.0
20/01:00am 17.3 16.5 13.0 76 2.4 SSW 9 20 5 11 1021.9 1021.9 0.0
20/12:30am 17.3 16.0 12.6 74 2.6 SSW 11 20 6 11 1022.0 1022.0 0.0
20/12:00am 17.3 16.4 12.6 74 2.6 SSW 9 17 5 9 1022.2 1022.2 0.0
 
Date/Time
EDT
Temp
°C
App
Temp
°C
Dew
Point
°C
Rel
Hum
%
Delta-T
°C
Wind Press
QNH
hPa
Press
MSL
hPa
Rain since
9am
mm
Dir  Spd
km/h
Gust
km/h
Spd
kts
Gust
kts
19/11:30pm 17.4 15.7 12.3 72 2.8 SSW 13 26 7 14 1022.3 1022.3 0.0
19/11:00pm 17.4 15.3 12.3 72 2.8 SSW 15 24 8 13 1022.3 1022.3 0.0
19/10:30pm 17.3 15.5 12.2 72 2.8 SW 13 20 7 11 1022.5 1022.5 0.0
19/10:00pm 17.3 15.5 12.0 71 2.9 SSW 13 24 7 13 1022.4 1022.4 0.0
19/09:30pm 17.3 15.8 11.8 70 3.0 SW 11 20 6 11 1022.3 1022.3 0.0
19/09:00pm 17.4 15.5 11.7 69 3.1 SSW 13 22 7 12 1022.0 1022.0 0.0
19/08:30pm 17.6 15.3 11.9 69 3.1 SW 15 22 8 12 1021.8 1021.8 0.0
19/08:00pm 18.1 15.3 11.2 64 3.7 SW 17 28 9 15 1021.7 1021.7 0.0
19/07:30pm 18.8 16.4 11.4 62 4.0 SSW 15 24 8 13 1021.3 1021.3 0.0
19/07:00pm 18.8 15.8 10.6 59 4.4 SSW 17 28 9 15 1021.2 1021.2 0.0
19/06:30pm 19.3 16.3 10.6 57 4.7 SSW 17 24 9 13 1021.2 1021.2 0.0
19/06:00pm 19.7 17.2 10.9 57 4.8 SW 15 26 8 14 1021.2 1021.2 0.0
19/05:30pm 19.9 16.7 11.1 57 4.8 SW 19 30 10 16 1021.3 1021.3 0.0
19/05:00pm 19.8 16.7 10.2 54 5.1 SW 17 28 9 15 1021.5 1021.5 0.0
19/04:30pm 20.5 17.9 10.6 53 5.4 SW 15 24 8 13 1021.7 1021.7 0.0
19/04:00pm 21.1 18.4 11.7 55 5.2 SSW 17 28 9 15 1021.7 1021.7 0.0
19/03:30pm 20.4 17.4 10.8 54 5.2 SSW 17 28 9 15 1021.9 1021.9 0.0
19/03:00pm 21.5 19.1 11.5 53 5.5 SSW 15 26 8 14 1022.0 1022.0 0.0
19/02:30pm 21.3 18.8 11.1 52 5.6 SW 15 33 8 18 1022.1 1022.1 0.0
19/02:00pm 20.4 17.0 9.3 49 5.9 WSW 17 30 9 16 1022.2 1022.2 0.0
19/01:30pm 19.9 16.4 10.3 54 5.2 SW 19 32 10 17 1022.2 1022.2 0.0
19/01:00pm 20.6 17.5 11.5 56 5.0 SW 19 30 10 16 1021.9 1021.9 0.0
19/12:30pm 20.0 16.7 11.0 56 4.9 SW 19 30 10 16 1021.7 1021.7 0.0
19/12:00pm 20.3 18.4 11.8 58 4.7 SW 13 30 7 16 1021.4 1021.4 0.0
19/11:30am 19.7 17.6 11.2 58 4.7 SSW 13 26 7 14 1021.2 1021.2 0.0
19/11:00am 19.9 17.6 11.9 60 4.4 SW 15 24 8 13 1021.0 1021.0 0.0
19/10:30am 19.0 17.2 12.0 64 3.9 SSW 13 22 7 12 1020.9 1020.9 0.0
19/10:00am 19.4 18.0 10.9 58 4.6 WSW 9 17 5 9 1020.7 1020.7 0.0

Other Formats:

Comma delimited format used in spreadsheet applications
http://www.bom.gov.au/fwo/IDV60801/IDV60801.94892.axf

JavaScript Object Notation format (JSON) in row-major order
http://www.bom.gov.au/fwo/IDV60801/IDV60801.94892.json